Brown Field Municipal Airport
KSDM : rendu visible

Aérodrome :











RETROUVEZ-NOUS SUR...

 
LOGIN :

S'inscrire | Disclaimer

   EN    FR    IT 

 









Légende :    VFR   VFR Marginal   IFR   IFR Intensif   IFR Très Intensif
Visi : 
Plafond : 
>= 8 km
>= 3000ft
5 à 8 km
1000 à 3000 ft
1500m à 5 km
500 à 1000 ft
800 à 1500m
200 à 500 ft
< 800m
< 200 ft
Symboles :   Orages  Brouillard  Fortes neiges  Fortes précipitations  Vent > 20 kt






- Altitude de l'aérodrome : 526 ft


KSDM - Brown Field Municipal

DERNIER METAR :
  • 210027Z 19014KT 10SM -RA BKN012 BKN018 OVC024 13/11 A2967 RMK AO2 RAB11 P0000 T01280106

METARs EXPIRÉS :
  • 210010Z 18013KT 10SM SCT014 BKN019 OVC055 13/10 A2967 RMK AO2 T01280100
  • 202353Z 20014G20KT 10SM FEW018 OVC060 13/09 A2967 RMK AO2 RAB25E39 SLP043 P0000 60013 T01280094 10167 20122 53004
  • 202253Z 19011KT 10SM FEW019 BKN070 13/10 A2965 RMK AO2 RAB2159E25 SLP037 P0000 T01330100
  • 202153Z 18012KT 10SM FEW033 BKN050 OVC085 12/09 A2965 RMK AO2 RAE50 SLP036 P0013 T01220094
  • 202140Z 18009KT 6SM -RA BR OVC050 12/11 A2965 RMK AO2 P0013 T01220106
  • 202130Z COR 19012KT 4SM +RA BR OVC050 12/10 A2965 RMK AO2 P0010 T01220100

TAF N/A



MET'MAP, la Météo Aéronautique d'un coup d'oeil ! - Copyright ORBIFLY Décembre 2007 - Disclaimer

ORBIFLY MET'MAP TEAM :

Programmation & Développement : Alexandra Zaïnal
Conception & Développement : Baudouin d'Aumeries
Co-Programmation & Développement : Marc-Olivier Méhu
Soutien technique & logistique : Manuel Goepfert

Contact : metmap@orbifly.com




SOURCES & CREDITS :

   NOAA       Earth
Advisory